createdAt,value
2018-09-20T00:00:12.793Z,1007.11
2018-09-20T00:01:12.803Z,1007.12
2018-09-20T00:02:12.821Z,1007.07
2018-09-20T00:03:12.806Z,1007.12
2018-09-20T00:04:12.828Z,1007.11
2018-09-20T00:05:12.796Z,1007.12
2018-09-20T00:06:12.802Z,1007.14
2018-09-20T00:07:12.804Z,1007.12
2018-09-20T00:08:12.835Z,1007.11
2018-09-20T00:09:12.821Z,1007.14
2018-09-20T00:10:12.819Z,1007.15
2018-09-20T00:11:12.822Z,1007.12
2018-09-20T00:12:12.831Z,1007.15
2018-09-20T00:13:12.832Z,1007.12
2018-09-20T00:14:12.852Z,1007.12
2018-09-20T00:15:12.832Z,1007.14
2018-09-20T00:16:12.834Z,1007.13
2018-09-20T00:17:12.843Z,1007.10
2018-09-20T00:18:12.860Z,1007.14
2018-09-20T00:19:12.845Z,1007.09
2018-09-20T00:20:12.858Z,1007.11
2018-09-20T00:21:12.853Z,1007.09
2018-09-20T00:22:12.862Z,1007.11
2018-09-20T00:23:12.875Z,1007.07
2018-09-20T00:24:12.877Z,1007.07
2018-09-20T00:25:12.880Z,1007.08
2018-09-20T00:26:12.877Z,1007.09
2018-09-20T00:27:12.881Z,1007.04
2018-09-20T00:28:12.885Z,1007.06
2018-09-20T00:29:12.892Z,1007.07
2018-09-20T00:30:21.604Z,1007.04
2018-09-20T00:32:14.893Z,1007.08
2018-09-20T00:33:05.810Z,1007.10
2018-09-20T00:34:05.816Z,1007.12
2018-09-20T00:35:05.813Z,1007.11
2018-09-20T00:36:05.822Z,1007.09
2018-09-20T00:37:05.864Z,1007.08
2018-09-20T00:38:05.894Z,1007.06
2018-09-20T00:39:05.831Z,1007.10
2018-09-20T00:40:05.838Z,1007.09
2018-09-20T00:41:05.839Z,1007.09
2018-09-20T00:42:05.863Z,1007.11
2018-09-20T00:43:05.839Z,1007.04
2018-09-20T00:44:05.840Z,1007.09
2018-09-20T00:45:05.894Z,1007.08
2018-09-20T00:46:05.846Z,1007.08
2018-09-20T00:47:05.862Z,1007.09
2018-09-20T00:48:05.865Z,1007.06
2018-09-20T00:49:05.857Z,1007.04
2018-09-20T00:50:05.876Z,1007.08
2018-09-20T00:51:05.869Z,1007.04
2018-09-20T00:52:05.911Z,1007.04
2018-09-20T00:53:05.876Z,1007.01
2018-09-20T00:54:05.878Z,1007.03
2018-09-20T00:55:05.884Z,1007.06
2018-09-20T00:56:05.886Z,1007.06
2018-09-20T00:57:05.884Z,1007.05
2018-09-20T00:58:05.913Z,1007.05
2018-09-20T00:59:05.915Z,1007.08
2018-09-20T01:00:05.899Z,1007.09
2018-09-20T01:01:05.909Z,1007.09
2018-09-20T01:02:05.899Z,1007.07
2018-09-20T01:03:05.906Z,1007.09
2018-09-20T01:04:05.906Z,1007.08
2018-09-20T01:05:05.920Z,1007.09
2018-09-20T01:06:05.919Z,1007.08
2018-09-20T01:07:05.945Z,1007.06
2018-09-20T01:08:05.917Z,1007.06
2018-09-20T01:09:05.921Z,1007.06
2018-09-20T01:10:05.921Z,1007.03
2018-09-20T01:11:05.925Z,1007.10
2018-09-20T01:12:05.945Z,1007.06
2018-09-20T01:13:05.936Z,1007.07
2018-09-20T01:14:05.932Z,1007.07
2018-09-20T01:15:05.961Z,1007.06
2018-09-20T01:16:05.951Z,1007.02
2018-09-20T01:17:05.942Z,1007.03
2018-09-20T01:18:05.950Z,1007.03
2018-09-20T01:19:05.968Z,1007.03
2018-09-20T01:20:05.962Z,1007.04
2018-09-20T01:21:05.958Z,1007.02
2018-09-20T01:22:05.956Z,1007.03
2018-09-20T01:23:05.982Z,1007.04
2018-09-20T01:24:05.968Z,1007.02
2018-09-20T01:25:05.997Z,1007.03
2018-09-20T01:26:05.979Z,1007.03
2018-09-20T01:27:06.011Z,1007.04
2018-09-20T01:28:05.995Z,1007.11
2018-09-20T01:29:05.981Z,1007.11
2018-09-20T01:30:05.997Z,1007.09
2018-09-20T01:31:05.987Z,1007.09
2018-09-20T01:32:05.985Z,1007.09
2018-09-20T01:33:05.996Z,1007.14
2018-09-20T01:34:05.993Z,1007.12
2018-09-20T01:35:06.007Z,1007.14
2018-09-20T01:36:06.004Z,1007.14
2018-09-20T01:37:06.001Z,1007.17
2018-09-20T01:38:06.024Z,1007.18
2018-09-20T01:39:06.002Z,1007.19
2018-09-20T01:40:06.027Z,1007.15
2018-09-20T01:41:06.007Z,1007.21
2018-09-20T01:42:06.042Z,1007.15
2018-09-20T01:43:06.031Z,1007.13
2018-09-20T01:44:06.020Z,1007.13
2018-09-20T01:45:06.033Z,1007.14
2018-09-20T01:46:06.047Z,1007.12
2018-09-20T01:47:06.037Z,1007.14
2018-09-20T01:48:06.029Z,1007.15
2018-09-20T01:49:06.031Z,1007.09
2018-09-20T01:50:06.071Z,1007.11
2018-09-20T01:51:06.043Z,1007.11
2018-09-20T01:52:06.044Z,1007.12
2018-09-20T01:53:06.038Z,1007.14
2018-09-20T01:54:06.042Z,1007.11
2018-09-20T01:55:06.048Z,1007.10
2018-09-20T01:56:06.047Z,1007.08
2018-09-20T01:57:06.062Z,1007.12
2018-09-20T01:58:06.062Z,1007.09
2018-09-20T01:59:06.063Z,1007.09
2018-09-20T02:00:06.079Z,1007.09
2018-09-20T02:01:06.071Z,1007.12
2018-09-20T02:02:06.118Z,1007.10
2018-09-20T02:03:06.070Z,1007.12
2018-09-20T02:04:16.641Z,1007.13
2018-09-20T02:05:59.519Z,1007.11
2018-09-20T02:06:59.480Z,1007.08
2018-09-20T02:07:59.481Z,1007.04
2018-09-20T02:08:59.474Z,1007.03
2018-09-20T02:09:59.486Z,1007.03
2018-09-20T02:10:59.513Z,1007.02
2018-09-20T02:11:59.490Z,1006.96
2018-09-20T02:12:59.492Z,1006.99
2018-09-20T02:13:59.494Z,1006.96
2018-09-20T02:14:59.499Z,1006.97
2018-09-20T02:15:59.494Z,1006.98
2018-09-20T02:16:59.498Z,1006.98
2018-09-20T02:18:08.292Z,1007.00
2018-09-20T02:20:02.052Z,1007.00
2018-09-20T02:21:01.643Z,1007.02
2018-09-20T02:22:46.362Z,1007.03
2018-09-20T02:23:54.998Z,1007.03
2018-09-20T02:25:48.935Z,1007.04
2018-09-20T02:26:48.833Z,1007.02
2018-09-20T02:28:42.493Z,1007.05
2018-09-20T02:31:03.601Z,1007.05
2018-09-20T02:32:01.624Z,1007.06
2018-09-20T02:33:47.834Z,1007.08
2018-09-20T02:34:47.812Z,1007.07
2018-09-20T02:35:47.909Z,1007.08
2018-09-20T02:36:47.804Z,1007.09
2018-09-20T02:37:47.797Z,1007.08
2018-09-20T02:38:47.813Z,1007.12
2018-09-20T03:14:55.007Z,1007.08
2018-09-20T03:15:54.990Z,1007.08
2018-09-20T03:16:54.971Z,1007.09
2018-09-20T03:18:04.689Z,1007.10
2018-09-20T03:19:48.381Z,1007.11
2018-09-20T03:20:48.368Z,1007.11
2018-09-20T03:21:48.386Z,1007.09
2018-09-20T03:22:48.364Z,1007.11
2018-09-20T03:23:48.365Z,1007.13
2018-09-20T03:24:48.369Z,1007.13
2018-09-20T03:25:48.383Z,1007.10
2018-09-20T03:26:48.365Z,1007.10
2018-09-20T03:27:48.375Z,1007.10
2018-09-20T03:28:48.368Z,1007.10
2018-09-20T03:29:48.371Z,1007.09
2018-09-20T03:30:48.486Z,1007.06
2018-09-20T03:31:48.380Z,1007.06
2018-09-20T03:32:48.386Z,1007.04
2018-09-20T03:33:48.389Z,1007.05
2018-09-20T03:34:48.380Z,1007.08
2018-09-20T03:35:56.156Z,1007.08
2018-09-20T03:37:41.800Z,1007.12
